Latest Coastal Weather Observations for Flinders Reef

IDQ60701

Issued at 2:15 am EST Thursday 17 April 2014 (issued every 10 minutes, with the page automatically refreshed every 10 minutes)

About coastal observations | Map of coastal stations | Coastal observations for QLD | Marine services | Other Formats
Station Details ID: 200783 Name: FLINDERS REEF Lat: -17.72 Lon: 148.45 Height: 2.6 m
Data from the previous 72 hours. | See also: Recent months at Flinders Reef
Date/Time
EST
Temp

°C
Wind Pressure Rain
since 9am
mm
Weather Cloud Vis
km
Sea
Height
m
Swell
Dir
 
Speed
knots
Gust
knots
hPa Trend Height
m
Period
s
Dir
17/02:00am 26.7 ESE 18 21 1012.8 - - - - - - - - -
17/01:30am 26.9 ESE 19 22 1013.1 - - - - - - - - -
17/01:24am 26.8 ESE 18 - 1013.1 - - - - - - - - -
17/01:00am 26.8 ESE 19 22 1013.4 - - - - - - - - -
17/12:30am 26.9 ESE 18 21 1013.7 - - - - - - - - -
17/12:24am 26.9 ESE 18 - 1013.7 - - - - - - - - -
17/12:00am 27.0 ESE 18 21 1013.8 - - - - - - - - -
 
Date/Time
EST
Temp

°C
Wind Pressure Rain
since 9am
mm
Weather Cloud Vis
km
Sea
Height
m
Swell
Dir
 
Speed
knots
Gust
knots
hPa Trend Height
m
Period
s
Dir
16/11:30pm 27.0 ESE 19 22 1013.9 - - - - - - - - -
16/11:24pm 26.9 ESE 19 - 1013.8 - - - - - - - - -
16/11:00pm 27.0 ESE 19 22 1013.9 - - - - - - - - -
16/10:30pm 27.0 SE 16 19 1014.1 - - - - - - - - -
16/10:24pm 26.9 SE 17 - 1013.9 - - - - - - - - -
16/10:00pm 27.1 SE 16 18 1013.9 - - - - - - - - -
16/09:30pm 27.0 SE 17 19 1014.1 - - - - - - - - -
16/09:24pm 27.0 SE 17 - 1013.9 - - - - - - - - -
16/09:00pm 27.1 SE 16 18 1014.0 - - - - - - - - -
16/08:30pm 27.2 SE 16 19 1014.0 - - - - - - - - -
16/08:24pm 27.0 SE 16 - 1013.8 - - - - - - - - -
16/08:00pm 26.9 SE 17 20 1013.6 - - - - - - - - -
16/07:30pm 26.9 SE 17 20 1013.0 - - - - - - - - -
16/07:24pm 27.0 SE 17 - 1012.8 - - - - - - - - -
16/07:00pm 26.9 SE 17 19 1012.6 - - - - - - - - -
16/06:30pm 26.9 SE 15 17 1012.6 - - - - - - - - -
16/06:24pm 27.1 SE 16 - 1012.4 - - - - - - - - -
16/06:00pm 26.9 SE 16 18 1012.2 - - - - - - - - -
16/05:30pm 26.9 SE 16 18 1012.0 - - - - - - - - -
16/05:24pm 27.0 SE 16 - 1012.0 - - - - - - - - -
16/05:00pm 26.8 ESE 16 18 1012.0 - - - - - - - - -
16/04:30pm 27.0 ESE 15 17 1011.8 - - - - - - - - -
16/04:24pm 26.9 ESE 15 - 1011.7 - - - - - - - - -
16/04:00pm 26.6 SE 15 21 1011.5 - - - - - - - - -
16/03:30pm 27.3 ESE 15 16 1011.6 - - - - - - - - -
16/03:24pm 26.8 ESE 14 - 1011.4 - - - - - - - - -
16/03:00pm 27.1 ESE 15 17 1011.3 - - - - - - - - -
16/02:30pm 27.1 ESE 15 17 1011.3 - - - - - - - - -
16/02:24pm 27.2 ESE 15 - 1011.3 - - - - - - - - -
16/02:00pm 27.2 ESE 15 17 1011.8 - - - - - - - - -
16/01:30pm 27.2 ESE 15 17 1012.0 - - - - - - - - -
16/01:24pm 27.2 ESE 15 - 1011.9 - - - - - - - - -
16/01:00pm 27.4 ESE 16 18 1012.1 - - - - - - - - -
16/12:30pm 27.3 ESE 15 17 1012.4 - - - - - - - - -
16/12:24pm 27.1 ESE 15 - 1012.4 - - - - - - - - -
16/12:00pm 27.3 ESE 16 18 1012.9 - - - - - - - - -
16/11:30am 27.2 ESE 17 19 1013.5 - - - - - - - - -
16/11:24am 27.1 ESE 17 - 1013.4 - - - - - - - - -
16/11:00am 26.9 E 15 17 1013.8 - - - - - - - - -
16/10:30am 26.7 ESE 13 16 1014.2 - - - - - - - - -
16/10:24am 26.6 ESE 15 - 1014.1 - - - - - - - - -
16/10:00am 27.2 ESE 17 20 1014.3 - - - - - - - - -
16/09:30am 27.0 ESE 16 18 1014.5 - - - - - - - - -
16/09:24am 27.0 ESE 16 - 1014.3 - - - - - - - - -
16/09:00am 26.9 ESE 16 18 1014.2 - - - - - - - - -
16/08:30am 26.9 ESE 17 19 1013.9 - - - - - - - - -
16/08:24am 26.9 ESE 16 - 1013.7 - - - - - - - - -
16/08:00am 26.8 ESE 15 19 1013.8 - - - - - - - - -
16/07:30am 27.0 ESE 15 16 1013.7 - - - - - - - - -
16/07:24am 26.8 ESE 14 - 1013.4 - - - - - - - - -
16/07:00am 26.9 ESE 15 17 1013.5 - - - - - - - - -
16/06:30am 26.7 ESE 14 15 1013.2 - - - - - - - - -
16/06:24am 26.8 ESE 13 - 1013.1 - - - - - - - - -
16/06:00am 26.6 SE 15 17 1012.8 - - - - - - - - -
16/05:30am 26.6 ESE 14 15 1012.5 - - - - - - - - -
16/05:24am 26.5 ESE 14 - 1012.3 - - - - - - - - -
16/05:00am 26.6 ESE 13 15 1012.4 - - - - - - - - -
16/04:30am 26.6 ESE 12 13 1012.2 - - - - - - - - -
16/04:24am 26.5 ESE 12 - 1012.1 - - - - - - - - -
16/04:00am 26.4 ESE 13 14 1012.0 - - - - - - - - -
16/03:30am 26.3 ESE 13 15 1011.9 - - - - - - - - -
16/03:24am 26.4 ESE 12 - 1011.9 - - - - - - - - -
16/03:00am 26.4 E 13 15 1012.0 - - - - - - - - -
16/02:30am 26.6 E 11 13 1012.1 - - - - - - - - -
16/02:24am 26.4 E 12 - 1012.1 - - - - - - - - -
16/02:00am 26.6 E 13 15 1012.2 - - - - - - - - -
16/01:30am 26.5 E 13 15 1012.4 - - - - - - - - -
16/01:24am 26.4 E 13 - 1012.5 - - - - - - - - -
16/01:00am 26.4 E 13 15 1012.8 - - - - - - - - -
16/12:30am 26.5 E 13 16 1013.0 - - - - - - - - -
16/12:24am 26.8 E 13 - 1013.0 - - - - - - - - -
16/12:00am 26.5 ESE 14 17 1013.4 - - - - - - - - -
 
Date/Time
EST
Temp

°C
Wind Pressure Rain
since 9am
mm
Weather Cloud Vis
km
Sea
Height
m
Swell
Dir
 
Speed
knots
Gust
knots
hPa Trend Height
m
Period
s
Dir
15/11:30pm 26.6 ESE 14 17 1013.7 - - - - - - - - -
15/11:24pm 26.7 ESE 14 - 1013.6 - - - - - - - - -
15/11:00pm 26.8 ESE 14 16 1013.9 - - - - - - - - -
15/10:30pm 26.7 ESE 14 16 1014.0 - - - - - - - - -
15/10:24pm 26.8 ESE 14 - 1014.0 - - - - - - - - -
15/10:00pm 26.6 ESE 14 16 1014.2 - - - - - - - - -
15/09:30pm 26.7 ESE 15 17 1014.1 - - - - - - - - -
15/09:24pm 26.7 ESE 15 - 1013.9 - - - - - - - - -
15/09:00pm 26.9 SE 14 17 1013.8 - - - - - - - - -
15/08:30pm 26.8 SE 15 17 1013.7 - - - - - - - - -
15/08:24pm 26.8 SE 15 - 1013.5 - - - - - - - - -
15/08:00pm 26.8 SE 14 16 1013.4 - - - - - - - - -
15/07:30pm 26.9 SE 14 16 1012.9 - - - - - - - - -
15/07:24pm 26.6 SE 14 - 1012.7 - - - - - - - - -
15/07:00pm 26.7 SE 14 17 1012.4 - - - - - - - - -
15/06:30pm 26.6 SE 14 16 1012.2 - - - - - - - - -
15/06:24pm 26.6 SE 14 - 1012.0 - - - - - - - - -
15/06:00pm 26.6 SE 13 16 1012.0 - - - - - - - - -
15/05:30pm 26.8 SE 14 16 1011.6 - - - - - - - - -
15/05:24pm 26.9 SE 14 - 1011.4 - - - - - - - - -
15/05:00pm 26.8 SSE 13 16 1011.3 - - - - - - - - -
15/04:30pm 27.0 SSE 13 15 1011.0 - - - - - - - - -
15/04:24pm 26.9 SE 13 - 1010.9 - - - - - - - - -
15/04:00pm 27.0 SE 12 14 1010.9 - - - - - - - - -
15/03:30pm 27.0 SE 12 14 1010.8 - - - - - - - - -
15/03:24pm 27.1 SE 12 - 1010.7 - - - - - - - - -
15/03:00pm 27.5 SE 11 13 1010.8 - - - - - - - - -
15/02:30pm 27.2 ESE 9 11 1010.8 - - - - - - - - -
15/02:24pm 27.1 ESE 9 - 1010.8 - - - - - - - - -
15/02:00pm 27.5 ESE 9 10 1011.2 - - - - - - - - -
15/01:30pm 27.2 ESE 8 10 1011.5 - - - - - - - - -
15/01:24pm 27.2 ESE 8 - 1011.4 - - - - - - - - -
15/01:00pm 27.3 ESE 8 11 1011.9 - - - - - - - - -
15/12:30pm 27.5 ESE 10 11 1012.0 - - - - - - - - -
15/12:24pm 27.1 ESE 10 - 1012.0 - - - - - - - - -
15/12:00pm 27.3 ESE 11 13 1012.5 - - - - - - - - -
15/11:30am 27.1 ESE 13 14 1012.9 - - - - - - - - -
15/11:24am 27.1 E 12 - 1012.8 - - - - - - - - -
15/11:00am 27.1 ESE 11 14 1013.1 - - - - - - - - -
15/10:30am 27.1 ESE 12 15 1013.4 - - - - - - - - -
15/10:24am 27.0 ESE 13 - 1013.3 - - - - - - - - -
15/10:00am 27.0 ESE 13 15 1013.5 - - - - - - - - -
15/09:30am 27.0 ESE 14 16 1013.5 - - - - - - - - -
15/09:24am 27.1 ESE 14 - 1013.4 - - - - - - - - -
15/09:00am 27.2 ESE 14 16 1013.3 - - - - - - - - -
15/08:30am 26.8 ESE 14 16 1013.2 - - - - - - - - -
15/08:24am 26.9 ESE 14 - 1013.0 - - - - - - - - -
15/08:00am 26.8 ESE 14 16 1013.0 - - - - - - - - -
15/07:30am 26.7 ESE 13 17 1012.7 - - - - - - - - -
15/07:24am 26.6 ESE 13 - 1012.6 - - - - - - - - -
15/07:00am 26.6 ESE 12 14 1012.5 - - - - - - - - -
15/06:30am 26.2 ESE 13 15 1012.4 - - - - - - - - -
15/06:24am 26.4 SE 13 - 1012.2 - - - - - - - - -
15/06:00am 26.5 E 10 13 1012.2 - - - - - - - - -
15/05:30am 26.3 E 12 14 1011.9 - - - - - - - - -
15/05:24am 26.1 E 12 - 1011.8 - - - - - - - - -
15/05:00am 26.2 E 11 13 1011.7 - - - - - - - - -
15/04:30am 26.2 E 11 13 1011.5 - - - - - - - - -
15/04:24am 26.2 E 11 - 1011.4 - - - - - - - - -
15/04:00am 26.2 E 10 11 1011.3 - - - - - - - - -
15/03:30am 26.2 E 11 13 1011.4 - - - - - - - - -
15/03:24am 26.3 E 11 - 1011.2 - - - - - - - - -
15/03:00am 26.4 E 11 13 1011.3 - - - - - - - - -
15/02:30am 26.2 E 13 15 1011.1 - - - - - - - - -
15/02:24am 26.4 E 13 - 1010.9 - - - - - - - - -
15/02:00am 26.2 E 14 15 1011.0 - - - - - - - - -
15/01:30am 26.4 E 14 16 1011.3 - - - - - - - - -
15/01:24am 26.5 E 14 - 1011.2 - - - - - - - - -
15/01:00am 26.3 E 13 15 1011.4 - - - - - - - - -
15/12:30am 26.6 E 13 15 1011.5 - - - - - - - - -
15/12:24am 26.7 ESE 13 - 1011.5 - - - - - - - - -
15/12:00am 26.4 ESE 13 15 1011.7 - - - - - - - - -
 
Date/Time
EST
Temp

°C
Wind Pressure Rain
since 9am
mm
Weather Cloud Vis
km
Sea
Height
m
Swell
Dir
 
Speed
knots
Gust
knots
hPa Trend Height
m
Period
s
Dir
14/11:30pm 26.6 ESE 13 15 1012.0 - - - - - - - - -
14/11:24pm 26.5 ESE 13 - 1012.0 - - - - - - - - -
14/11:00pm 26.5 ESE 12 14 1012.1 - - - - - - - - -
14/10:30pm 26.5 ESE 12 14 1012.0 - - - - - - - - -
14/10:24pm 26.5 ESE 12 - 1011.9 - - - - - - - - -
14/10:00pm 26.4 ESE 12 14 1012.0 - - - - - - - - -
14/09:30pm 26.3 SE 12 15 1012.0 - - - - - - - - -
14/09:24pm 26.5 SE 12 - 1011.9 - - - - - - - - -
14/09:00pm 26.5 SE 12 15 1011.9 - - - - - - - - -
14/08:30pm 26.5 SE 10 12 1011.8 - - - - - - - - -
14/08:24pm 26.4 SE 11 - 1011.7 - - - - - - - - -
14/08:00pm 26.5 SE 10 12 1011.4 - - - - - - - - -
14/07:30pm 26.5 SE 10 12 1011.1 - - - - - - - - -
14/07:24pm 26.5 SE 10 - 1011.0 - - - - - - - - -
14/07:00pm 26.2 SSE 10 11 1010.7 - - - - - - - - -
14/06:30pm 26.1 SSE 10 12 1010.3 - - - - - - - - -
14/06:24pm 26.3 SSE 9 - 1010.1 - - - - - - - - -
14/06:00pm 26.3 S 10 11 1010.1 - - - - - - - - -
14/05:30pm 26.3 S 10 12 1009.8 - - - - - - - - -
14/05:24pm 26.4 S 10 - 1009.5 - - - - - - - - -
14/05:00pm 26.5 S 9 11 1009.4 - - - - - - - - -
14/04:30pm 26.6 S 8 10 1009.1 - - - - - - - - -
14/04:24pm 26.6 S 9 - 1008.9 - - - - - - - - -
14/04:00pm 26.4 S 9 10 1008.9 - - - - - - - - -
14/03:30pm 26.5 S 8 9 1008.6 - - - - - - - - -
14/03:24pm 26.5 S 8 - 1008.5 - - - - - - - - -
14/03:00pm 26.4 S 9 11 1008.4 - - - - - - - - -
14/02:30pm 26.4 S 9 11 1008.5 - - - - - - - - -
14/02:24pm 26.4 S 9 - 1008.4 - - - - - - - - -
14/02:00pm 26.3 S 10 12 1008.4 - - - - - - - - -
14/01:30pm 26.4 S 10 12 1008.6 - - - - - - - - -
14/01:24pm 26.5 S 11 - 1008.5 - - - - - - - - -
14/01:00pm 26.3 S 12 14 1008.7 - - - - - - - - -
14/12:30pm 26.5 S 11 14 1009.1 - - - - - - - - -
14/12:24pm 26.4 S 11 - 1009.0 - - - - - - - - -
14/12:00pm 26.3 S 11 13 1009.5 - - - - - - - - -
14/11:30am 26.5 S 10 11 1009.8 - - - - - - - - -
14/11:24am 26.6 S 10 - 1009.7 - - - - - - - - -
14/11:00am 26.6 S 7 8 1010.2 - - - - - - - - -
14/10:30am 26.6 S 8 9 1010.4 - - - - - - - - -
14/10:24am 26.6 S 9 - 1010.3 - - - - - - - - -
14/10:00am 26.6 S 8 9 1010.6 - - - - - - - - -
14/09:30am 26.8 S 6 7 1010.8 - - - - - - - - -
14/09:24am 26.8 S 5 - 1010.8 - - - - - - - - -
14/09:00am 26.7 S 6 7 1010.8 - - - - - - - - -
14/08:30am 26.8 SSE 9 10 1010.2 - - - - - - - - -
14/08:24am 26.6 SSE 9 - 1010.0 - - - - - - - - -
14/08:00am 26.6 SSE 10 12 1009.9 - - - - - - - - -
14/07:30am 26.6 SE 13 16 1009.5 - - - - - - - - -
14/07:24am 26.6 SE 14 - 1009.2 - - - - - - - - -
14/07:00am 26.5 SE 16 18 1009.0 - - - - - - - - -
14/06:30am 26.5 SSE 16 18 1008.8 - - - - - - - - -
14/06:24am 26.2 SSE 16 - 1008.6 - - - - - - - - -
14/06:00am 26.0 SE 15 17 1008.6 - - - - - - - - -
14/05:30am 26.0 SSE 15 17 1008.3 - - - - - - - - -
14/05:24am 26.0 SSE 15 - 1008.1 - - - - - - - - -
14/05:00am 25.8 S 16 17 1008.0 - - - - - - - - -
14/04:30am 25.7 S 15 17 1007.8 - - - - - - - - -
14/04:24am 25.7 S 15 - 1007.6 - - - - - - - - -
14/04:00am 26.1 S 14 17 1007.9 - - - - - - - - -
14/03:30am 26.2 S 14 17 1007.4 - - - - - - - - -
14/03:24am 26.2 S 14 - 1007.5 - - - - - - - - -
14/03:00am 26.3 S 12 15 1007.7 - - - - - - - - -
14/02:30am 26.5 SSW 13 15 1008.0 - - - - - - - - -
14/02:24am 26.4 SSW 13 - 1008.0 - - - - - - - - -

Other Formats:

Comma delimited format used in spreadsheet applications
http://www.bom.gov.au/fwo/IDQ60701/IDQ60701.94290.axf

JavaScript Object Notation format (JSON) in row-major order
http://www.bom.gov.au/fwo/IDQ60701/IDQ60701.94290.json